sensor_id;sensor_type;location;lat;lon;timestamp;pressure;altitude;pressure_sealevel;temperature;humidity
11912;BME280;6016;41.928;25.556;2023-03-09T00:01:22;98463.84;;;12.13;67.79
11912;BME280;6016;41.928;25.556;2023-03-09T00:03:50;98468.78;;;12.16;67.33
11912;BME280;6016;41.928;25.556;2023-03-09T00:06:17;98469.94;;;12.13;67.05
11912;BME280;6016;41.928;25.556;2023-03-09T00:08:44;98452.91;;;11.99;66.75
11912;BME280;6016;41.928;25.556;2023-03-09T00:11:13;98476.41;;;12.10;66.85
11912;BME280;6016;41.928;25.556;2023-03-09T00:13:41;98475.00;;;11.81;67.47
11912;BME280;6016;41.928;25.556;2023-03-09T00:16:10;98487.88;;;11.76;67.53
11912;BME280;6016;41.928;25.556;2023-03-09T00:18:38;98415.50;;;11.28;67.76
11912;BME280;6016;41.928;25.556;2023-03-09T00:21:05;98480.81;;;11.77;67.76
11912;BME280;6016;41.928;25.556;2023-03-09T00:23:32;98489.03;;;11.74;67.56
11912;BME280;6016;41.928;25.556;2023-03-09T00:26:03;98487.69;;;11.61;67.56
11912;BME280;6016;41.928;25.556;2023-03-09T00:28:30;98493.31;;;11.58;68.24
11912;BME280;6016;41.928;25.556;2023-03-09T00:31:02;98446.88;;;11.39;67.51
11912;BME280;6016;41.928;25.556;2023-03-09T00:33:29;98480.75;;;11.60;67.74
11912;BME280;6016;41.928;25.556;2023-03-09T00:35:56;98469.22;;;11.10;70.45
11912;BME280;6016;41.928;25.556;2023-03-09T00:38:23;98452.63;;;10.83;71.81
11912;BME280;6016;41.928;25.556;2023-03-09T00:40:50;98465.84;;;10.91;70.89
11912;BME280;6016;41.928;25.556;2023-03-09T00:43:17;98461.97;;;11.12;69.08
11912;BME280;6016;41.928;25.556;2023-03-09T00:45:44;98458.63;;;11.02;70.90
11912;BME280;6016;41.928;25.556;2023-03-09T00:48:12;98375.75;;;10.78;69.47
11912;BME280;6016;41.928;25.556;2023-03-09T00:50:39;98465.22;;;11.40;68.50
11912;BME280;6016;41.928;25.556;2023-03-09T00:53:06;98457.78;;;11.44;67.48
11912;BME280;6016;41.928;25.556;2023-03-09T00:55:33;98448.03;;;11.45;67.28
11912;BME280;6016;41.928;25.556;2023-03-09T00:57:59;98419.09;;;11.18;67.74
11912;BME280;6016;41.928;25.556;2023-03-09T01:00:26;98403.25;;;11.10;67.72
11912;BME280;6016;41.928;25.556;2023-03-09T01:02:53;98423.22;;;11.21;67.54
11912;BME280;6016;41.928;25.556;2023-03-09T01:05:21;98444.72;;;11.34;67.31
11912;BME280;6016;41.928;25.556;2023-03-09T01:07:48;98458.72;;;11.26;68.15
11912;BME280;6016;41.928;25.556;2023-03-09T01:10:15;98444.34;;;11.21;68.12
11912;BME280;6016;41.928;25.556;2023-03-09T01:12:43;98439.56;;;11.24;68.40
11912;BME280;6016;41.928;25.556;2023-03-09T01:15:11;98457.72;;;11.19;68.16
11912;BME280;6016;41.928;25.556;2023-03-09T01:17:38;98311.13;;;9.78;68.47
11912;BME280;6016;41.928;25.556;2023-03-09T01:20:06;98451.75;;;11.17;68.77
11912;BME280;6016;41.928;25.556;2023-03-09T01:22:34;98415.22;;;10.96;68.45
11912;BME280;6016;41.928;25.556;2023-03-09T01:25:01;98449.28;;;11.16;68.30
11912;BME280;6016;41.928;25.556;2023-03-09T01:27:28;98437.72;;;11.08;68.57
11912;BME280;6016;41.928;25.556;2023-03-09T01:29:55;98436.41;;;11.13;68.09
11912;BME280;6016;41.928;25.556;2023-03-09T01:32:21;98402.13;;;10.43;69.28
11912;BME280;6016;41.928;25.556;2023-03-09T01:34:51;98449.47;;;10.79;70.33
11912;BME280;6016;41.928;25.556;2023-03-09T01:37:18;98347.78;;;10.24;70.02
11912;BME280;6016;41.928;25.556;2023-03-09T01:39:46;98436.84;;;10.12;73.40
11912;BME280;6016;41.928;25.556;2023-03-09T01:42:13;98447.50;;;10.55;71.06
11912;BME280;6016;41.928;25.556;2023-03-09T01:44:40;98452.69;;;10.65;69.28
11912;BME280;6016;41.928;25.556;2023-03-09T01:47:07;98421.56;;;10.42;69.30
11912;BME280;6016;41.928;25.556;2023-03-09T01:49:38;98438.56;;;10.03;71.15
11912;BME280;6016;41.928;25.556;2023-03-09T01:52:12;98394.06;;;9.55;74.96
11912;BME280;6016;41.928;25.556;2023-03-09T01:54:47;98418.44;;;9.57;74.29
11912;BME280;6016;41.928;25.556;2023-03-09T01:57:20;98425.38;;;10.03;75.30
11912;BME280;6016;41.928;25.556;2023-03-09T01:59:50;98421.34;;;10.35;72.60
11912;BME280;6016;41.928;25.556;2023-03-09T02:02:18;98386.09;;;10.36;71.76
11912;BME280;6016;41.928;25.556;2023-03-09T02:04:50;98389.78;;;10.44;70.85
11912;BME280;6016;41.928;25.556;2023-03-09T02:07:21;98423.56;;;10.22;70.45
11912;BME280;6016;41.928;25.556;2023-03-09T02:09:52;98399.25;;;10.36;71.70
11912;BME280;6016;41.928;25.556;2023-03-09T02:12:21;98426.19;;;10.75;68.61
11912;BME280;6016;41.928;25.556;2023-03-09T02:14:48;98420.63;;;10.86;67.44
11912;BME280;6016;41.928;25.556;2023-03-09T02:17:16;98419.66;;;10.87;67.35
11912;BME280;6016;41.928;25.556;2023-03-09T02:19:57;98418.66;;;10.88;66.66
11912;BME280;6016;41.928;25.556;2023-03-09T02:22:26;98422.81;;;10.91;66.75
11912;BME280;6016;41.928;25.556;2023-03-09T02:25:04;98426.94;;;10.93;67.16
11912;BME280;6016;41.928;25.556;2023-03-09T02:27:34;98434.16;;;10.83;66.13
11912;BME280;6016;41.928;25.556;2023-03-09T02:30:02;98427.78;;;10.59;66.27
11912;BME280;6016;41.928;25.556;2023-03-09T02:32:30;98445.00;;;10.80;66.03
11912;BME280;6016;41.928;25.556;2023-03-09T02:34:57;98441.22;;;10.82;66.58
11912;BME280;6016;41.928;25.556;2023-03-09T02:37:27;98439.19;;;10.68;67.39
11912;BME280;6016;41.928;25.556;2023-03-09T02:39:56;98442.94;;;10.65;66.70
11912;BME280;6016;41.928;25.556;2023-03-09T02:42:26;98399.25;;;10.36;66.79
11912;BME280;6016;41.928;25.556;2023-03-09T02:44:55;98439.19;;;10.68;65.80
11912;BME280;6016;41.928;25.556;2023-03-09T02:47:23;98353.97;;;10.06;66.42
11912;BME280;6016;41.928;25.556;2023-03-09T02:49:50;98441.75;;;10.51;67.34
11912;BME280;6016;41.928;25.556;2023-03-09T02:52:17;98436.47;;;10.51;67.57
11912;BME280;6016;41.928;25.556;2023-03-09T02:54:44;98434.13;;;10.30;68.53
11912;BME280;6016;41.928;25.556;2023-03-09T02:57:11;98393.69;;;10.13;67.40
11912;BME280;6016;41.928;25.556;2023-03-09T02:59:38;98429.03;;;10.47;66.89
11912;BME280;6016;41.928;25.556;2023-03-09T03:02:06;98389.66;;;10.27;66.51
11912;BME280;6016;41.928;25.556;2023-03-09T03:04:34;98373.94;;;10.17;67.06
11912;BME280;6016;41.928;25.556;2023-03-09T03:07:01;98389.94;;;9.97;68.65
11912;BME280;6016;41.928;25.556;2023-03-09T03:09:28;98360.75;;;9.91;67.72
11912;BME280;6016;41.928;25.556;2023-03-09T03:11:56;98328.59;;;9.79;67.91
11912;BME280;6016;41.928;25.556;2023-03-09T03:14:22;98418.69;;;10.35;67.71
11912;BME280;6016;41.928;25.556;2023-03-09T03:16:49;98422.56;;;10.41;67.41
11912;BME280;6016;41.928;25.556;2023-03-09T03:19:17;98422.00;;;10.37;67.62
11912;BME280;6016;41.928;25.556;2023-03-09T03:21:44;98432.56;;;10.37;67.35
11912;BME280;6016;41.928;25.556;2023-03-09T03:24:11;98366.94;;;9.99;67.74
11912;BME280;6016;41.928;25.556;2023-03-09T03:26:38;98427.38;;;10.46;67.77
11912;BME280;6016;41.928;25.556;2023-03-09T03:29:05;98435.28;;;10.46;67.56
11912;BME280;6016;41.928;25.556;2023-03-09T03:31:32;98426.84;;;10.42;67.55
11912;BME280;6016;41.928;25.556;2023-03-09T03:33:59;98395.75;;;10.27;67.36
11912;BME280;6016;41.928;25.556;2023-03-09T03:36:27;98395.59;;;10.29;67.56
11912;BME280;6016;41.928;25.556;2023-03-09T03:38:54;98387.00;;;10.27;66.95
11912;BME280;6016;41.928;25.556;2023-03-09T03:41:21;98423.78;;;10.55;67.37
11912;BME280;6016;41.928;25.556;2023-03-09T03:43:47;98430.72;;;10.56;66.32
11912;BME280;6016;41.928;25.556;2023-03-09T03:46:17;98432.06;;;10.60;66.15
11912;BME280;6016;41.928;25.556;2023-03-09T03:48:44;98425.94;;;10.60;66.28
11912;BME280;6016;41.928;25.556;2023-03-09T03:51:11;98408.69;;;10.39;66.97
11912;BME280;6016;41.928;25.556;2023-03-09T03:53:40;98421.78;;;10.49;67.07
11912;BME280;6016;41.928;25.556;2023-03-09T03:56:08;98378.38;;;10.17;67.34
11912;BME280;6016;41.928;25.556;2023-03-09T03:58:35;98415.50;;;10.50;67.06
11912;BME280;6016;41.928;25.556;2023-03-09T04:01:01;98385.09;;;10.37;66.83
11912;BME280;6016;41.928;25.556;2023-03-09T04:03:28;98419.28;;;10.47;66.88
11912;BME280;6016;41.928;25.556;2023-03-09T04:05:55;98417.81;;;10.45;66.70
11912;BME280;6016;41.928;25.556;2023-03-09T04:08:22;98418.94;;;10.42;66.53
11912;BME280;6016;41.928;25.556;2023-03-09T04:10:50;98369.25;;;10.03;66.98
11912;BME280;6016;41.928;25.556;2023-03-09T04:13:17;98398.84;;;10.23;67.04
11912;BME280;6016;41.928;25.556;2023-03-09T04:15:44;98360.81;;;9.99;66.92
11912;BME280;6016;41.928;25.556;2023-03-09T04:18:10;98415.69;;;10.30;67.04
11912;BME280;6016;41.928;25.556;2023-03-09T04:20:37;98407.16;;;10.36;67.18
11912;BME280;6016;41.928;25.556;2023-03-09T04:23:05;98401.75;;;10.38;66.46
11912;BME280;6016;41.928;25.556;2023-03-09T04:25:32;98399.59;;;10.33;67.41
11912;BME280;6016;41.928;25.556;2023-03-09T04:28:00;98376.22;;;10.12;66.21
11912;BME280;6016;41.928;25.556;2023-03-09T04:30:27;98223.94;;;9.10;66.43
11912;BME280;6016;41.928;25.556;2023-03-09T04:32:55;98355.50;;;9.73;66.21
11912;BME280;6016;41.928;25.556;2023-03-09T04:35:22;98329.03;;;9.74;66.76
11912;BME280;6016;41.928;25.556;2023-03-09T04:37:49;98402.19;;;10.07;66.76
11912;BME280;6016;41.928;25.556;2023-03-09T04:40:17;98407.16;;;10.10;66.59
11912;BME280;6016;41.928;25.556;2023-03-09T04:42:44;98436.78;;;10.30;67.15
11912;BME280;6016;41.928;25.556;2023-03-09T04:45:12;98338.84;;;9.64;66.83
11912;BME280;6016;41.928;25.556;2023-03-09T04:47:39;98225.66;;;8.65;67.05
11912;BME280;6016;41.928;25.556;2023-03-09T04:50:07;98381.78;;;9.82;67.20
11912;BME280;6016;41.928;25.556;2023-03-09T04:52:34;98423.66;;;10.12;66.53
11912;BME280;6016;41.928;25.556;2023-03-09T04:55:01;98427.81;;;9.96;67.30
11912;BME280;6016;41.928;25.556;2023-03-09T04:57:28;98428.66;;;9.97;67.43
11912;BME280;6016;41.928;25.556;2023-03-09T04:59:55;97963.94;;;6.61;69.12
11912;BME280;6016;41.928;25.556;2023-03-09T05:02:23;98432.06;;;8.79;72.60
11912;BME280;6016;41.928;25.556;2023-03-09T05:04:51;98426.81;;;8.79;74.48
11912;BME280;6016;41.928;25.556;2023-03-09T05:07:18;98426.06;;;9.14;72.39
11912;BME280;6016;41.928;25.556;2023-03-09T05:09:45;98408.03;;;9.38;69.82
11912;BME280;6016;41.928;25.556;2023-03-09T05:12:11;98428.75;;;9.69;69.01
11912;BME280;6016;41.928;25.556;2023-03-09T05:14:38;98435.00;;;9.86;67.39
11912;BME280;6016;41.928;25.556;2023-03-09T05:17:05;98431.09;;;9.98;66.90
11912;BME280;6016;41.928;25.556;2023-03-09T05:19:33;98434.13;;;10.04;66.54
11912;BME280;6016;41.928;25.556;2023-03-09T05:22:02;98431.97;;;9.81;67.13
11912;BME280;6016;41.928;25.556;2023-03-09T05:24:29;98433.03;;;9.70;69.89
11912;BME280;6016;41.928;25.556;2023-03-09T05:26:55;98409.31;;;9.88;68.13
11912;BME280;6016;41.928;25.556;2023-03-09T05:29:22;98429.53;;;10.06;67.37
11912;BME280;6016;41.928;25.556;2023-03-09T05:31:49;98339.72;;;9.73;66.45
11912;BME280;6016;41.928;25.556;2023-03-09T05:34:16;98383.28;;;10.11;66.21
11912;BME280;6016;41.928;25.556;2023-03-09T05:36:44;98405.63;;;10.25;65.75
11912;BME280;6016;41.928;25.556;2023-03-09T05:39:11;98390.53;;;10.09;65.72
11912;BME280;6016;41.928;25.556;2023-03-09T05:41:38;98342.03;;;9.94;64.86
11912;BME280;6016;41.928;25.556;2023-03-09T05:44:05;98440.28;;;10.57;65.06
11912;BME280;6016;41.928;25.556;2023-03-09T05:46:32;98427.41;;;10.54;65.13
11912;BME280;6016;41.928;25.556;2023-03-09T05:48:59;98401.28;;;10.43;65.09
11912;BME280;6016;41.928;25.556;2023-03-09T05:51:26;98445.31;;;10.77;64.79
11912;BME280;6016;41.928;25.556;2023-03-09T05:53:54;98412.94;;;10.58;64.93
11912;BME280;6016;41.928;25.556;2023-03-09T05:56:21;98440.50;;;10.72;65.46
11912;BME280;6016;41.928;25.556;2023-03-09T05:58:49;98437.25;;;10.78;64.95
11912;BME280;6016;41.928;25.556;2023-03-09T06:01:19;98445.03;;;10.88;65.06
11912;BME280;6016;41.928;25.556;2023-03-09T06:03:45;98442.78;;;10.93;64.83
11912;BME280;6016;41.928;25.556;2023-03-09T06:06:14;98439.25;;;10.84;64.95
11912;BME280;6016;41.928;25.556;2023-03-09T06:08:41;98387.16;;;9.99;66.30
11912;BME280;6016;41.928;25.556;2023-03-09T06:11:10;98433.66;;;10.53;65.99
11912;BME280;6016;41.928;25.556;2023-03-09T06:13:37;98399.94;;;10.38;65.55
11912;BME280;6016;41.928;25.556;2023-03-09T06:16:12;98432.19;;;10.85;65.54
11912;BME280;6016;41.928;25.556;2023-03-09T06:18:39;98419.03;;;10.93;65.65
11912;BME280;6016;41.928;25.556;2023-03-09T06:21:06;98421.56;;;11.20;64.92
11912;BME280;6016;41.928;25.556;2023-03-09T06:23:34;98403.75;;;11.22;65.02
11912;BME280;6016;41.928;25.556;2023-03-09T06:26:03;98382.31;;;11.17;64.44
11912;BME280;6016;41.928;25.556;2023-03-09T06:28:31;98443.94;;;11.67;64.24
11912;BME280;6016;41.928;25.556;2023-03-09T06:30:58;98429.75;;;11.60;63.37
11912;BME280;6016;41.928;25.556;2023-03-09T06:33:25;98442.88;;;12.03;63.00
11912;BME280;6016;41.928;25.556;2023-03-09T06:35:51;98447.13;;;13.02;59.57
11912;BME280;6016;41.928;25.556;2023-03-09T06:38:18;98449.50;;;14.90;55.62
11912;BME280;6016;41.928;25.556;2023-03-09T06:40:45;98439.25;;;15.75;51.96
11912;BME280;6016;41.928;25.556;2023-03-09T06:43:14;98449.06;;;17.18;48.07
11912;BME280;6016;41.928;25.556;2023-03-09T06:45:45;98457.47;;;18.58;44.98
11912;BME280;6016;41.928;25.556;2023-03-09T06:48:12;98456.56;;;19.11;43.39
11912;BME280;6016;41.928;25.556;2023-03-09T06:50:39;98459.34;;;19.30;42.78
11912;BME280;6016;41.928;25.556;2023-03-09T06:53:06;98452.06;;;19.50;42.38
11912;BME280;6016;41.928;25.556;2023-03-09T06:55:33;98417.72;;;20.12;40.43
11912;BME280;6016;41.928;25.556;2023-03-09T06:57:59;98451.88;;;21.65;38.43
11912;BME280;6016;41.928;25.556;2023-03-09T07:00:26;98383.28;;;23.18;35.91
11912;BME280;6016;41.928;25.556;2023-03-09T07:02:54;98430.28;;;25.43;32.18
11912;BME280;6016;41.928;25.556;2023-03-09T07:05:21;98426.50;;;26.85;30.88
11912;BME280;6016;41.928;25.556;2023-03-09T07:07:48;98435.22;;;28.08;28.52
11912;BME280;6016;41.928;25.556;2023-03-09T07:10:15;98434.34;;;28.49;28.11
11912;BME280;6016;41.928;25.556;2023-03-09T07:12:42;98430.06;;;27.75;28.26
11912;BME280;6016;41.928;25.556;2023-03-09T07:15:09;98426.38;;;27.07;29.09
11912;BME280;6016;41.928;25.556;2023-03-09T07:17:36;98371.03;;;26.29;30.07
11912;BME280;6016;41.928;25.556;2023-03-09T07:20:05;98421.47;;;26.13;30.73
11912;BME280;6016;41.928;25.556;2023-03-09T07:22:32;98415.84;;;26.20;30.96
11912;BME280;6016;41.928;25.556;2023-03-09T07:24:59;98424.97;;;26.46;29.72
11912;BME280;6016;41.928;25.556;2023-03-09T07:27:26;98410.50;;;26.25;30.04
11912;BME280;6016;41.928;25.556;2023-03-09T07:29:52;98422.41;;;26.24;30.29
11912;BME280;6016;41.928;25.556;2023-03-09T07:32:19;98413.25;;;26.03;30.62
11912;BME280;6016;41.928;25.556;2023-03-09T07:34:46;98421.25;;;25.54;31.69
11912;BME280;6016;41.928;25.556;2023-03-09T07:37:14;98414.44;;;24.80;31.86
11912;BME280;6016;41.928;25.556;2023-03-09T07:39:41;98401.38;;;24.32;32.86
11912;BME280;6016;41.928;25.556;2023-03-09T07:42:08;98363.72;;;23.69;33.62
11912;BME280;6016;41.928;25.556;2023-03-09T07:44:35;98418.47;;;24.04;33.82
11912;BME280;6016;41.928;25.556;2023-03-09T07:47:02;98403.66;;;24.23;33.69
11912;BME280;6016;41.928;25.556;2023-03-09T07:49:29;98420.56;;;24.36;33.81
11912;BME280;6016;41.928;25.556;2023-03-09T07:51:55;98375.69;;;23.90;33.84
11912;BME280;6016;41.928;25.556;2023-03-09T07:54:24;98416.09;;;23.90;33.61
11912;BME280;6016;41.928;25.556;2023-03-09T07:56:50;98414.34;;;23.84;34.22
11912;BME280;6016;41.928;25.556;2023-03-09T07:59:18;98408.41;;;23.82;34.49
11912;BME280;6016;41.928;25.556;2023-03-09T08:01:45;98408.72;;;23.85;33.77
11912;BME280;6016;41.928;25.556;2023-03-09T08:04:12;98402.91;;;23.94;34.47
11912;BME280;6016;41.928;25.556;2023-03-09T08:06:42;98397.97;;;23.85;33.39
11912;BME280;6016;41.928;25.556;2023-03-09T08:09:12;98400.81;;;23.79;34.43
11912;BME280;6016;41.928;25.556;2023-03-09T08:11:41;98406.09;;;23.91;33.59
11912;BME280;6016;41.928;25.556;2023-03-09T08:14:09;98403.13;;;24.04;33.90
11912;BME280;6016;41.928;25.556;2023-03-09T08:16:36;98390.69;;;23.86;33.02
11912;BME280;6016;41.928;25.556;2023-03-09T08:19:03;98398.97;;;23.50;33.32
11912;BME280;6016;41.928;25.556;2023-03-09T08:21:30;98396.78;;;23.06;34.63
11912;BME280;6016;41.928;25.556;2023-03-09T08:23:57;98372.56;;;22.77;36.28
11912;BME280;6016;41.928;25.556;2023-03-09T08:26:24;98365.56;;;22.64;36.49
11912;BME280;6016;41.928;25.556;2023-03-09T08:28:52;98395.34;;;22.74;36.09
11912;BME280;6016;41.928;25.556;2023-03-09T08:31:19;98398.19;;;22.68;37.29
11912;BME280;6016;41.928;25.556;2023-03-09T08:33:46;98390.25;;;22.61;37.28
11912;BME280;6016;41.928;25.556;2023-03-09T08:36:15;98393.16;;;22.59;38.01
11912;BME280;6016;41.928;25.556;2023-03-09T08:38:43;98389.53;;;22.42;35.58
11912;BME280;6016;41.928;25.556;2023-03-09T08:41:11;98388.72;;;22.17;36.63
11912;BME280;6016;41.928;25.556;2023-03-09T08:43:38;98382.03;;;21.96;36.44
11912;BME280;6016;41.928;25.556;2023-03-09T08:46:06;98378.56;;;21.96;38.99
11912;BME280;6016;41.928;25.556;2023-03-09T08:48:34;98375.28;;;22.05;37.24
11912;BME280;6016;41.928;25.556;2023-03-09T08:51:01;98382.28;;;22.06;37.79
11912;BME280;6016;41.928;25.556;2023-03-09T08:53:29;98375.50;;;22.04;37.66
11912;BME280;6016;41.928;25.556;2023-03-09T08:55:56;98371.78;;;21.81;36.56
11912;BME280;6016;41.928;25.556;2023-03-09T08:58:23;98380.38;;;21.71;37.43
11912;BME280;6016;41.928;25.556;2023-03-09T09:00:50;98374.69;;;21.49;37.23
11912;BME280;6016;41.928;25.556;2023-03-09T09:03:18;98379.38;;;21.11;37.38
11912;BME280;6016;41.928;25.556;2023-03-09T09:05:45;98376.09;;;20.90;37.65
11912;BME280;6016;41.928;25.556;2023-03-09T09:08:12;98362.00;;;20.76;38.07
11912;BME280;6016;41.928;25.556;2023-03-09T09:10:39;98351.31;;;20.58;39.92
11912;BME280;6016;41.928;25.556;2023-03-09T09:13:10;98366.94;;;20.61;40.47
11912;BME280;6016;41.928;25.556;2023-03-09T09:15:37;98364.91;;;20.56;40.17
11912;BME280;6016;41.928;25.556;2023-03-09T09:18:06;98366.13;;;20.42;39.14
11912;BME280;6016;41.928;25.556;2023-03-09T09:20:35;98203.34;;;19.44;38.38
11912;BME280;6016;41.928;25.556;2023-03-09T09:23:02;98360.44;;;20.69;40.35
11912;BME280;6016;41.928;25.556;2023-03-09T09:25:29;98358.84;;;20.86;39.94
11912;BME280;6016;41.928;25.556;2023-03-09T09:27:56;98298.91;;;20.62;41.32
11912;BME280;6016;41.928;25.556;2023-03-09T09:30:22;98359.56;;;20.93;39.66
11912;BME280;6016;41.928;25.556;2023-03-09T09:32:49;98359.44;;;20.88;39.47
11912;BME280;6016;41.928;25.556;2023-03-09T09:35:16;98316.22;;;20.59;39.27
11912;BME280;6016;41.928;25.556;2023-03-09T09:37:44;98358.75;;;20.56;38.88
11912;BME280;6016;41.928;25.556;2023-03-09T09:40:13;98358.91;;;20.42;39.91
11912;BME280;6016;41.928;25.556;2023-03-09T09:42:42;98361.66;;;20.35;40.98
11912;BME280;6016;41.928;25.556;2023-03-09T09:45:24;98355.69;;;20.33;42.21
11912;BME280;6016;41.928;25.556;2023-03-09T09:47:51;98331.72;;;20.20;40.30
11912;BME280;6016;41.928;25.556;2023-03-09T09:50:19;98325.50;;;20.26;40.83
11912;BME280;6016;41.928;25.556;2023-03-09T09:52:51;98343.50;;;20.56;40.86
11912;BME280;6016;41.928;25.556;2023-03-09T09:55:24;98341.94;;;20.67;41.24
11912;BME280;6016;41.928;25.556;2023-03-09T09:57:58;98340.50;;;20.64;38.40
11912;BME280;6016;41.928;25.556;2023-03-09T10:00:32;98339.84;;;20.69;39.43
11912;BME280;6016;41.928;25.556;2023-03-09T10:03:15;98146.53;;;19.48;39.60
11912;BME280;6016;41.928;25.556;2023-03-09T10:05:45;98340.34;;;20.78;38.59
11912;BME280;6016;41.928;25.556;2023-03-09T10:08:26;98328.31;;;20.87;39.18
11912;BME280;6016;41.928;25.556;2023-03-09T10:10:57;98247.13;;;20.49;39.29
11912;BME280;6016;41.928;25.556;2023-03-09T10:13:32;98338.00;;;21.19;38.80
11912;BME280;6016;41.928;25.556;2023-03-09T10:16:04;98343.38;;;21.31;39.29
11912;BME280;6016;41.928;25.556;2023-03-09T10:18:34;98331.41;;;21.45;37.82
11912;BME280;6016;41.928;25.556;2023-03-09T10:21:05;98241.97;;;20.97;38.44
11912;BME280;6016;41.928;25.556;2023-03-09T10:23:41;98330.72;;;21.50;37.67
11912;BME280;6016;41.928;25.556;2023-03-09T10:26:17;98318.75;;;21.22;37.10
11912;BME280;6016;41.928;25.556;2023-03-09T10:28:48;98290.22;;;20.78;38.45
11912;BME280;6016;41.928;25.556;2023-03-09T10:31:18;98315.25;;;20.91;38.72
11912;BME280;6016;41.928;25.556;2023-03-09T10:33:51;98249.50;;;20.58;38.51
11912;BME280;6016;41.928;25.556;2023-03-09T10:36:23;98305.47;;;20.97;38.37
11912;BME280;6016;41.928;25.556;2023-03-09T10:38:56;98289.50;;;20.71;39.95
11912;BME280;6016;41.928;25.556;2023-03-09T10:41:28;98272.94;;;21.24;41.58
11912;BME280;6016;41.928;25.556;2023-03-09T10:43:56;98288.00;;;21.48;40.07
11912;BME280;6016;41.928;25.556;2023-03-09T10:46:24;98282.56;;;21.67;36.37
11912;BME280;6016;41.928;25.556;2023-03-09T10:49:09;98275.56;;;21.78;34.96
11912;BME280;6016;41.928;25.556;2023-03-09T10:51:38;98267.41;;;21.73;35.76
11912;BME280;6016;41.928;25.556;2023-03-09T10:54:20;98258.78;;;21.95;38.19
11912;BME280;6016;41.928;25.556;2023-03-09T10:56:48;98235.97;;;21.61;37.59
11912;BME280;6016;41.928;25.556;2023-03-09T10:59:16;98255.47;;;21.92;39.24
11912;BME280;6016;41.928;25.556;2023-03-09T11:01:45;98254.66;;;22.04;38.45
11912;BME280;6016;41.928;25.556;2023-03-09T11:04:32;98261.06;;;22.03;38.51
11912;BME280;6016;41.928;25.556;2023-03-09T11:07:01;98252.56;;;21.70;35.83
11912;BME280;6016;41.928;25.556;2023-03-09T11:09:32;98257.59;;;21.78;37.87
11912;BME280;6016;41.928;25.556;2023-03-09T11:12:09;98213.91;;;21.47;37.24
11912;BME280;6016;41.928;25.556;2023-03-09T11:14:43;98204.72;;;21.43;37.58
11912;BME280;6016;41.928;25.556;2023-03-09T11:17:33;98233.63;;;21.29;37.54
11912;BME280;6016;41.928;25.556;2023-03-09T11:20:24;98225.56;;;21.29;37.62
11912;BME280;6016;41.928;25.556;2023-03-09T11:22:57;98223.41;;;20.84;38.35
11912;BME280;6016;41.928;25.556;2023-03-09T11:25:36;98169.66;;;20.17;39.56
11912;BME280;6016;41.928;25.556;2023-03-09T11:28:11;98199.19;;;20.10;36.20
11912;BME280;6016;41.928;25.556;2023-03-09T11:30:41;98125.69;;;19.69;38.43
11912;BME280;6016;41.928;25.556;2023-03-09T11:33:09;98163.56;;;20.10;35.24
11912;BME280;6016;41.928;25.556;2023-03-09T11:35:38;98193.34;;;20.32;34.18
11912;BME280;6016;41.928;25.556;2023-03-09T11:38:09;98192.50;;;20.01;35.35
11912;BME280;6016;41.928;25.556;2023-03-09T11:40:40;98190.31;;;19.91;37.58
11912;BME280;6016;41.928;25.556;2023-03-09T11:43:14;98160.78;;;19.79;35.23
11912;BME280;6016;41.928;25.556;2023-03-09T11:45:43;98160.19;;;20.15;38.54
11912;BME280;6016;41.928;25.556;2023-03-09T11:48:16;98048.72;;;19.52;37.10
11912;BME280;6016;41.928;25.556;2023-03-09T11:50:54;98159.84;;;20.42;34.44
11912;BME280;6016;41.928;25.556;2023-03-09T11:53:26;98153.91;;;20.40;34.50
11912;BME280;6016;41.928;25.556;2023-03-09T11:56:00;98154.06;;;20.57;37.57
11912;BME280;6016;41.928;25.556;2023-03-09T11:58:33;98146.47;;;20.53;36.34
11912;BME280;6016;41.928;25.556;2023-03-09T12:01:09;98117.38;;;20.27;36.40
11912;BME280;6016;41.928;25.556;2023-03-09T12:03:41;98133.41;;;20.45;32.29
11912;BME280;6016;41.928;25.556;2023-03-09T12:06:25;98022.75;;;19.41;34.97
11912;BME280;6016;41.928;25.556;2023-03-09T12:08:55;98131.53;;;20.34;35.23
11912;BME280;6016;41.928;25.556;2023-03-09T12:11:28;98125.13;;;20.47;36.42
11912;BME280;6016;41.928;25.556;2023-03-09T12:13:59;98107.69;;;20.56;37.08
11912;BME280;6016;41.928;25.556;2023-03-09T12:16:30;98109.09;;;21.13;34.31
11912;BME280;6016;41.928;25.556;2023-03-09T12:19:01;98106.25;;;21.32;33.40
11912;BME280;6016;41.928;25.556;2023-03-09T12:21:31;98101.59;;;21.39;33.72
11912;BME280;6016;41.928;25.556;2023-03-09T12:24:18;98084.44;;;21.40;33.44
11912;BME280;6016;41.928;25.556;2023-03-09T12:26:56;98093.03;;;21.54;33.26
11912;BME280;6016;41.928;25.556;2023-03-09T12:29:29;98029.03;;;21.34;34.66
11912;BME280;6016;41.928;25.556;2023-03-09T12:34:59;98091.22;;;21.96;33.98
11912;BME280;6016;41.928;25.556;2023-03-09T12:37:56;98093.22;;;21.88;33.75
11912;BME280;6016;41.928;25.556;2023-03-09T12:40:33;98089.81;;;21.93;33.46
11912;BME280;6016;41.928;25.556;2023-03-09T12:46:44;98086.78;;;21.89;32.47
11912;BME280;6016;41.928;25.556;2023-03-09T12:49:15;98091.22;;;21.96;32.99
11912;BME280;6016;41.928;25.556;2023-03-09T12:51:49;98035.44;;;21.45;34.00
11912;BME280;6016;41.928;25.556;2023-03-09T12:54:21;98092.72;;;21.91;33.58
11912;BME280;6016;41.928;25.556;2023-03-09T12:56:50;98087.72;;;21.95;32.86
11912;BME280;6016;41.928;25.556;2023-03-09T12:59:22;98038.06;;;21.16;35.67
11912;BME280;6016;41.928;25.556;2023-03-09T13:01:53;98034.00;;;21.01;33.88
11912;BME280;6016;41.928;25.556;2023-03-09T13:04:22;98063.38;;;20.96;36.20
11912;BME280;6016;41.928;25.556;2023-03-09T13:06:55;98068.84;;;20.89;34.83
11912;BME280;6016;41.928;25.556;2023-03-09T13:09:28;98079.59;;;20.89;35.81
11912;BME280;6016;41.928;25.556;2023-03-09T13:12:01;98077.50;;;20.37;37.05
11912;BME280;6016;41.928;25.556;2023-03-09T13:17:41;98080.94;;;20.26;39.63
11912;BME280;6016;41.928;25.556;2023-03-09T13:20:17;98069.66;;;19.74;37.70